GW0890 Weather Reports


time (UTC)temp
F
wind
direction
speed
knots
gust
knots
rain 1hr
in
rain 24hr
in
rain mn
in
humidity
%
barometer
mb
20221207230017 61 141 2.6 7.0 0.00 0.13 0.13 86 1021.4
20221207224518 61 119 4.3 7.8 0.00 0.13 0.13 85 1021.4
20221207223014 62 141 1.7 4.3 0.00 0.13 0.13 86 1020.8
20221207221522 62 138 2.6 7.8 0.00 0.13 0.13 85 1020.6
20221207220041 62 142 3.5 6.1 0.00 0.13 0.13 85 1020.4
20221207214615 63 132 1.7 8.7 0.00 0.13 0.13 86 1020.4
20221207213034 63 151 3.5 7.0 0.00 0.13 0.13 87 1019.9
20221207211532 64 130 2.6 6.1 0.00 0.13 0.13 88 1019.7
20221207210032 64 137 1.7 5.2 0.00 0.13 0.13 87 1019.6
20221207204531 65 119 3.5 11.3 0.00 0.13 0.13 86 1019.6
20221207203027 67 68 2.6 6.1 0.00 0.13 0.13 85 1019.1
20221207201531 67 5 3.5 7.8 0.00 0.13 0.13 85 1019.0
20221207200024 67 51 4.3 7.0 0.00 0.13 0.13 87 1019.0
20221207194524 66 64 0.9 4.3 0.00 0.13 0.13 88 1018.8
20221207193031 66 103 0.9 5.2 0.00 0.13 0.13 88 1018.7
20221207191522 66 38 2.6 6.1 0.00 0.13 0.13 89 1018.6
20221207190029 66 39 3.5 6.1 0.00 0.14 0.13 89 1018.6
20221207190027 66 40 3.5 6.1 0.00 0.14 0.13 89 1018.6
20221207184534 66 67 4.3 7.0 0.00 0.14 0.13 89 1018.8
20221207183016 66 57 4.3 7.0 0.00 0.14 0.13 89 1018.7
20221207181519 66 33 2.6 5.2 0.00 0.14 0.13 90 1018.7
20221207180013 66 52 0.0 1.7 0.00 0.19 0.13 92 1018.4
20221207174512 65 50 2.6 5.2 0.00 0.19 0.13 92 1018.5
20221207173008 65 59 3.5 6.1 0.00 0.19 0.13 92 1019.0
20221207171504 65 50 3.5 7.0 0.00 0.19 0.13 93 1019.0
20221207170002 65 67 3.5 5.2 0.00 0.26 0.13 94 1019.0
20221207164607 64 355 0.9 4.3 0.00 0.26 0.13 94 1018.9
20221207163108 64 317 0.9 4.3 0.00 0.26 0.13 95 1019.2
20221207161634 64 323 1.7 4.3 0.00 0.26 0.13 95 1019.3
20221207160100 64 317 1.7 4.3 0.00 0.27 0.13 96 1019.5
20221207154555 64 318 1.7 4.3 0.00 0.27 0.13 97 1019.5
20221207153054 63 284 0.9 3.5 0.00 0.27 0.13 98 1019.7
20221207151548 62 196 0.0 0.9 0.00 0.27 0.13 98 1019.5
20221207150050 61 196 0.0 0.9 0.00 0.27 0.13 97 1019.5
20221207144547 61 196 0.0 1.7 0.00 0.27 0.13 97 1019.5
20221207143046 61 201 0.0 0.9 0.00 0.27 0.13 97 1019.2
20221207141518 60 201 0.0 1.7 0.00 0.27 0.13 97 1019.1
20221207140014 60 201 0.9 2.6 0.00 0.27 0.13 97 1018.8
20221207134507 60 192 0.0 0.0 0.00 0.27 0.13 97 1018.7
20221207133006 60 181 0.0 0.0 0.00 0.27 0.13 96 1018.8
20221207131506 60 180 0.0 1.7 0.00 0.27 0.13 96 1018.5
20221207130002 60 180 1.7 3.5 0.00 0.27 0.13 96 1018.0
20221207124600 61 152 0.0 0.0 0.00 0.27 0.13 95 1018.1
20221207123101 61 94 0.0 0.0 0.00 0.27 0.13 95 1017.9
20221207121601 61 86 0.0 1.7 0.00 0.27 0.13 95 1017.7
20221207120100 61 105 0.0 0.0 0.00 0.27 0.13 94 1017.5
20221207114556 61 88 0.9 1.7 0.00 0.27 0.13 94 1017.4
20221207113059 62 86 0.0 3.5 0.00 0.27 0.13 94 1017.5
20221207111552 62 23 0.0 3.5 0.00 0.27 0.13 94 1017.4
20221207110050 62 19 0.9 5.2 0.00 0.27 0.13 95 1017.3
20221207104545 62 30 3.5 6.1 0.00 0.27 0.13 95 1017.1
20221207103045 62 31 1.7 5.2 0.00 0.27 0.13 96 1017.0
20221207101545 61 101 1.7 5.2 0.00 0.27 0.13 96 1016.9
20221207100044 61 313 0.0 4.3 0.00 0.27 0.13 95 1016.8
20221207094539 61 115 0.9 3.5 0.00 0.27 0.13 95 1016.7
20221207093040 61 42 0.0 3.5 0.00 0.27 0.13 95 1016.6
20221207091542 60 204 0.0 1.7 0.00 0.27 0.13 95 1016.5
20221207090038 60 235 0.0 3.5 0.04 0.27 0.13 94 1016.4
20221207084517 61 175 0.9 3.5 0.08 0.27 0.13 94 1016.6
20221207083006 62 311 0.0 4.3 0.12 0.27 0.13 93 1016.5
20221207081511 62 288 4.3 7.0 0.13 0.27 0.13 93 1016.5
20221207080002 62 273 0.0 3.5 0.09 0.23 0.09 92 1016.5
20221207074501 62 40 2.6 5.2 0.04 0.18 0.04 91 1016.8
20221207073119 62 329 5.2 7.8 0.01 0.15 0.01 91 1016.5
20221207073000 62 305 4.3 7.8 0.01 0.15 0.01 91 1016.5
20221207071627 62 326 3.5 6.1 0.00 0.14 0.00 90 1016.5
20221207070056 62 302 3.5 7.0 0.00 0.14 0.00 90 1016.6
20221207064555 62 291 5.2 7.8 0.00 0.14 0.00 90 1016.4
20221207063055 62 299 3.5 8.7 0.00 0.14 0.00 91 1016.5
20221207061550 62 304 3.5 7.0 0.00 0.14 0.00 91 1016.6
20221207060104 62 324 3.5 8.7 0.00 0.14 0.00 91 1016.5
20221207054553 62 295 5.2 8.7 0.00 0.14 0.00 91 1016.5
20221207053100 61 302 5.2 9.6 0.00 0.14 0.00 92 1016.6
20221207051544 61 315 0.0 6.1 0.00 0.14 0.00 92 1016.7
20221207050039 61 300 4.3 7.0 0.00 0.14 0.14 93 1016.6
20221207044537 60 299 2.6 5.2 0.00 0.14 0.14 94 1016.7
20221207043036 60 306 0.9 5.2 0.00 0.14 0.14 94 1016.7
20221207041550 59 301 1.7 7.0 0.00 0.14 0.14 95 1016.7
20221207040041 59 217 0.0 2.6 0.00 0.14 0.14 94 1016.8
20221207034535 59 319 2.6 6.1 0.00 0.14 0.14 95 1016.7
20221207033033 59 294 0.0 4.3 0.00 0.14 0.14 96 1017.0
20221207031544 58 257 0.0 3.5 0.00 0.14 0.14 96 1016.9
20221207030036 59 217 1.7 4.3 0.00 0.14 0.14 96 1016.6
20221207024529 58 250 2.6 7.0 0.00 0.14 0.14 96 1016.7
20221207023027 58 9 0.9 2.6 0.00 0.14 0.14 97 1017.0
20221207021529 57 290 0.0 4.3 0.00 0.14 0.14 97 1017.0
20221207020058 56 207 0.0 3.5 0.00 0.14 0.14 96 1017.0
20221207014557 57 196 0.9 2.6 0.00 0.14 0.14 96 1017.1
20221207013053 57 214 0.0 1.7 0.00 0.14 0.14 96 1016.8
20221207011551 57 213 0.9 1.7 0.00 0.14 0.14 96 1016.6
20221207010051 57 240 0.9 4.3 0.00 0.14 0.14 95 1016.7
20221207004557 58 167 0.0 0.0 0.00 0.14 0.14 95 1017.1
20221207003048 58 167 0.9 3.5 0.00 0.14 0.14 94 1017.1
20221207001548 59 104 0.0 0.9 0.00 0.14 0.14 94 1017.1
20221207000045 60 104 0.9 3.5 0.00 0.14 0.14 95 1017.0
20221206234542 59 104 0.0 4.3 0.00 0.14 0.14 94 1016.5
20221206233037 59 150 0.9 1.7 0.00 0.14 0.14 94 1016.3
20221206231541 59 15 0.0 1.7 0.00 0.14 0.14 94 1016.2